Aérodrome :
LOGIN :

S'inscrire | Disclaimer

   EN    FR    IT 

 










Légende :    VFR   VFR Marginal   IFR   IFR Intensif   IFR Très Intensif
Visi : 
Plafond : 
>= 8 km
>= 3000ft
5 à 8 km
1000 à 3000 ft
1500m à 5 km
500 à 1000 ft
800 à 1500m
200 à 500 ft
< 800m
< 200 ft
Symboles :   Orages  Brouillard  Fortes neiges  Fortes précipitations  Vent > 20 kt
SIGMETs :   Divers  Orages  Givrage  Turbulence  Onde Orograph.  Cendres Volcan.







- Altitude de l'aérodrome : 464 ft
- Code IATA : EVX
- Voir les cartes d'approche


LFOE - Evreux

DERNIER METAR :
  • 230800Z AUTO 25007KT 220V290 9999 OVC022 17/12 Q1020

METARs EXPIRÉS :
  • 230730Z AUTO 25007KT 220V280 9999 OVC022 16/12 Q1020
  • 230700Z AUTO 26009KT 230V290 9999 OVC022 16/12 Q1020
  • 230630Z AUTO 26010KT 9999 OVC022 16/12 Q1020
  • 230600Z AUTO 26007KT 9999 OVC023 15/12 Q1019
  • 230530Z AUTO VRB03KT 9999 OVC022 15/12 Q1019

TAF TAF LFOE
Valide du 23 à 03h jusqu'au 24 à 03h UTC


230200Z 2303/2403 28008KT 9999 SCT020
PROB30
TEMPO 2303/2306 BKN010
TEMPO 2309/2321 30010G20KT
Pas de NOTAMs connus pour ce terrain.



MET'MAP, la Météo Aéronautique d'un coup d'oeil ! - Copyright ORBIFLY Décembre 2007 - Disclaimer

ORBIFLY MET'MAP TEAM :

Programmation & Développement : Alexandra Zaïnal
Conception & Développement : Baudouin d'Aumeries
Co-Programmation & Développement : Marc-Olivier Méhu
Soutien technique & logistique : Manuel Goepfert

Contact : metmap@orbifly.com




SOURCES & CREDITS :

   NOAA